Time,TemperatureF,DewpointF,PressureIn,WindDirection,WindDirectionDegrees,WindSpeedMPH,WindSpeedGustMPH,Humidity,HourlyPrecipIn,Conditions,Clouds,dailyrainin,SolarRadiationWatts/m^2,SoftwareType,DateUTC
2013-12-15 00:00:00,22.2,20.5,29.93,ENE,62,4.0,23.0,93,0.00,,---,0.00,0.00,VWS V15.00,2013-12-15 05:00:00,
2013-12-15 00:01:00,19.8,17.9,29.99,ESE,104,8.0,22.0,92,0.00,,---,0.00,0.00,VWS V14.01,2013-12-15 05:01:00,
2013-12-15 00:06:00,19.8,17.9,29.99,ESE,103,8.0,15.0,92,0.00,,---,0.00,0.00,VWS V14.01,2013-12-15 05:06:00,
2013-12-15 00:11:00,19.9,18.0,29.98,East,96,8.0,15.0,92,0.00,,---,0.00,0.00,VWS V14.01,2013-12-15 05:11:00,
2013-12-15 00:16:00,19.9,18.0,29.96,East,82,11.0,17.0,92,0.00,,---,0.00,0.00,VWS V14.01,2013-12-15 05:16:00,
2013-12-15 00:21:00,20.0,18.0,29.96,ENE,62,9.0,17.0,92,0.00,,---,0.00,0.00,VWS V14.01,2013-12-15 05:21:00,
2013-12-15 00:26:00,20.0,18.0,29.94,East,100,16.0,18.0,92,0.00,,---,0.00,0.00,VWS V14.01,2013-12-15 05:26:00,
2013-12-15 00:30:00,22.8,21.1,29.90,ENE,76,12.0,16.0,93,0.00,,---,0.00,0.00,VWS V15.00,2013-12-15 05:30:00,
2013-12-15 00:31:00,21.6,19.9,29.94,ENE,67,8.0,20.0,93,0.00,,---,0.00,0.00,VWS V14.01,2013-12-15 05:31:00,
2013-12-15 00:36:00,21.8,20.1,29.94,NE,42,10.0,21.0,93,0.00,,---,0.00,0.00,VWS V14.01,2013-12-15 05:36:00,
2013-12-15 00:41:00,21.9,20.2,29.93,ESE,107,14.0,23.0,93,0.00,,---,0.00,0.00,VWS V14.01,2013-12-15 05:41:00,
2013-12-15 00:46:00,22.0,20.3,29.92,East,93,8.0,23.0,93,0.00,,---,0.00,0.00,VWS V14.01,2013-12-15 05:46:00,
2013-12-15 00:51:00,22.0,20.3,29.94,SSE,149,5.0,23.0,93,0.00,,---,0.00,0.00,VWS V14.01,2013-12-15 05:51:00,
2013-12-15 00:56:00,22.1,20.4,29.92,NNE,20,7.0,23.0,93,0.00,,---,0.00,0.00,VWS V14.01,2013-12-15 05:56:00,
2013-12-15 01:00:00,23.6,22.1,29.81,East,101,10.0,24.0,94,0.00,,---,0.00,0.00,VWS V15.00,2013-12-15 06:00:00,
2013-12-15 01:01:00,22.2,20.5,29.93,East,82,3.0,23.0,93,0.00,,---,0.00,0.00,VWS V14.01,2013-12-15 06:01:00,
2013-12-15 01:06:00,22.3,20.6,29.92,ENE,66,2.0,11.0,93,0.00,,---,0.00,0.00,VWS V14.01,2013-12-15 06:06:00,
2013-12-15 01:11:00,22.4,20.7,29.92,NE,34,6.0,16.0,93,0.00,,---,0.00,0.00,VWS V14.01,2013-12-15 06:11:00,
2013-12-15 01:16:00,22.6,20.9,29.91,ENE,75,5.0,16.0,93,0.00,,---,0.00,0.00,VWS V14.01,2013-12-15 06:16:00,
2013-12-15 01:21:00,22.7,21.0,29.91,ENE,59,5.0,16.0,93,0.00,,---,0.00,0.00,VWS V14.01,2013-12-15 06:21:00,
2013-12-15 01:26:00,22.8,21.1,29.90,ENE,62,9.0,16.0,93,0.00,,---,0.00,0.00,VWS V14.01,2013-12-15 06:26:00,
2013-12-15 01:30:00,25.0,23.5,29.78,NE,42,11.0,28.0,94,0.00,,---,0.00,0.00,VWS V15.00,2013-12-15 06:30:00,
2013-12-15 01:31:00,22.8,21.1,29.90,NNE,13,7.0,16.0,93,0.00,,---,0.00,0.00,VWS V14.01,2013-12-15 06:31:00,
2013-12-15 01:36:00,22.8,21.3,29.88,East,96,9.0,15.0,94,0.00,,---,0.00,0.00,VWS V14.01,2013-12-15 06:36:00,
2013-12-15 01:41:00,23.0,21.5,29.87,ESE,113,12.0,17.0,94,0.00,,---,0.00,0.00,VWS V14.01,2013-12-15 06:41:00,
2013-12-15 01:46:00,23.1,21.6,29.86,ENE,57,8.0,18.0,94,0.00,,---,0.00,0.00,VWS V14.01,2013-12-15 06:46:00,
2013-12-15 01:51:00,23.3,21.8,29.84,SE,132,14.0,24.0,94,0.00,,---,0.00,0.00,VWS V14.01,2013-12-15 06:51:00,
2013-12-15 01:56:00,23.4,21.9,29.82,NE,53,13.0,24.0,94,0.00,,---,0.00,0.00,VWS V14.01,2013-12-15 06:56:00,
2013-12-15 02:00:00,25.8,24.1,29.75,NE,44,10.0,26.0,93,0.00,,---,0.00,0.00,VWS V15.00,2013-12-15 07:00:00,
2013-12-15 02:01:00,23.6,22.1,29.81,ESE,117,13.0,24.0,94,0.00,,---,0.00,0.00,VWS V14.01,2013-12-15 07:01:00,
2013-12-15 02:06:00,23.9,22.4,29.81,ESE,108,19.0,23.0,94,0.00,,---,0.00,0.00,VWS V14.01,2013-12-15 07:06:00,
2013-12-15 02:11:00,24.0,22.5,29.81,East,88,13.0,23.0,94,0.00,,---,0.00,0.00,VWS V14.01,2013-12-15 07:11:00,
2013-12-15 02:16:00,24.2,22.7,29.79,East,79,15.0,23.0,94,0.00,,---,0.00,0.00,VWS V14.01,2013-12-15 07:16:00,
2013-12-15 02:21:00,24.3,22.8,29.78,East,98,11.0,23.0,94,0.00,,---,0.00,0.00,VWS V14.01,2013-12-15 07:21:00,
2013-12-15 02:26:00,24.7,23.2,29.78,East,88,10.0,28.0,94,0.00,,---,0.00,0.00,VWS V14.01,2013-12-15 07:26:00,
2013-12-15 02:30:00,25.9,24.2,29.69,East,86,8.0,24.0,93,0.00,,---,0.00,0.00,VWS V15.00,2013-12-15 07:30:00,
2013-12-15 02:31:00,24.9,23.4,29.78,SW,229,8.0,28.0,94,0.00,,---,0.00,0.00,VWS V14.01,2013-12-15 07:31:00,
2013-12-15 02:36:00,25.3,23.8,29.78,NE,52,9.0,18.0,94,0.00,,---,0.00,0.00,VWS V14.01,2013-12-15 07:36:00,
2013-12-15 02:41:00,25.4,23.7,29.78,East,82,8.0,23.0,93,0.00,,---,0.00,0.00,VWS V14.01,2013-12-15 07:41:00,
2013-12-15 02:46:00,25.5,24.0,29.76,ESE,105,7.0,23.0,94,0.00,,---,0.00,0.00,VWS V14.01,2013-12-15 07:46:00,
2013-12-15 02:51:00,25.6,24.1,29.75,ENE,74,8.0,26.0,94,0.00,,---,0.00,0.00,VWS V14.01,2013-12-15 07:51:00,
2013-12-15 02:56:00,25.7,24.0,29.75,SE,130,11.0,26.0,93,0.00,,---,0.00,0.00,VWS V14.01,2013-12-15 07:56:00,
2013-12-15 03:00:00,26.6,24.9,29.68,SSE,147,23.0,23.0,93,0.00,,---,0.00,0.00,VWS V15.00,2013-12-15 08:00:00,
2013-12-15 03:01:00,25.8,24.1,29.75,ENE,65,18.0,26.0,93,0.00,,---,0.00,0.00,VWS V14.01,2013-12-15 08:01:00,
2013-12-15 03:06:00,25.8,24.1,29.74,ENE,66,14.0,24.0,93,0.00,,---,0.00,0.00,VWS V14.01,2013-12-15 08:06:00,
2013-12-15 03:11:00,25.8,24.1,29.72,East,81,14.0,24.0,93,0.00,,---,0.00,0.00,VWS V14.01,2013-12-15 08:11:00,
2013-12-15 03:16:00,25.9,24.2,29.72,ENE,58,8.0,24.0,93,0.00,,---,0.00,0.00,VWS V14.01,2013-12-15 08:16:00,
2013-12-15 03:26:00,25.9,24.2,29.72,NE,54,11.0,24.0,93,0.00,,---,0.00,0.00,VWS V14.01,2013-12-15 08:26:00,
2013-12-15 03:30:00,26.7,25.0,29.67,NNE,19,3.0,23.0,93,0.00,,---,0.00,0.00,VWS V15.00,2013-12-15 08:30:00,
2013-12-15 03:31:00,25.9,24.2,29.69,ENE,63,10.0,24.0,93,0.00,,---,0.00,0.00,VWS V14.01,2013-12-15 08:31:00,
2013-12-15 03:36:00,26.0,24.3,29.69,ENE,71,11.0,19.0,93,0.00,,---,0.00,0.00,VWS V14.01,2013-12-15 08:36:00,
2013-12-15 03:41:00,26.0,24.3,29.68,ENE,76,10.0,22.0,93,0.00,,---,0.00,0.00,VWS V14.01,2013-12-15 08:41:00,
2013-12-15 03:46:00,26.2,24.5,29.68,NNW,345,7.0,22.0,93,0.00,,---,0.00,0.00,VWS V14.01,2013-12-15 08:46:00,
2013-12-15 03:51:00,26.3,24.6,29.67,NE,47,3.0,22.0,93,0.00,,---,0.00,0.00,VWS V14.01,2013-12-15 08:51:00,
2013-12-15 03:56:00,26.5,24.8,29.66,ENE,71,3.0,22.0,93,0.00,,---,0.00,0.00,VWS V14.01,2013-12-15 08:56:00,
2013-12-15 04:00:00,26.8,25.0,29.68,NW,308,2.0,14.0,93,0.00,,---,0.00,0.00,VWS V15.00,2013-12-15 09:00:00,
2013-12-15 04:01:00,26.6,24.9,29.68,NE,40,7.0,22.0,93,0.00,,---,0.00,0.00,VWS V14.01,2013-12-15 09:01:00,
2013-12-15 04:06:00,26.7,24.7,29.67,SE,130,8.0,23.0,92,0.00,,---,0.00,0.00,VWS V14.01,2013-12-15 09:06:00,
2013-12-15 04:11:00,26.9,24.9,29.67,ENE,57,5.0,23.0,92,0.00,,---,0.00,0.00,VWS V14.01,2013-12-15 09:11:00,
2013-12-15 04:16:00,26.9,24.9,29.68,NNE,18,2.0,23.0,92,0.00,,---,0.00,0.00,VWS V14.01,2013-12-15 09:16:00,
2013-12-15 04:21:00,26.8,24.8,29.69,NE,40,5.0,23.0,92,0.00,,---,0.00,0.00,VWS V14.01,2013-12-15 09:21:00,
2013-12-15 04:26:00,26.8,24.8,29.68,East,82,0.0,23.0,92,0.00,,---,0.00,0.00,VWS V14.01,2013-12-15 09:26:00,
2013-12-15 04:30:00,21.2,19.2,29.67,NW,309,5.0,9.0,92,0.00,,---,0.00,0.00,VWS V15.00,2013-12-15 09:30:00,
2013-12-15 04:31:00,26.7,25.0,29.67,West,263,0.0,23.0,93,0.00,,---,0.00,0.00,VWS V14.01,2013-12-15 09:31:00,
2013-12-15 04:36:00,26.7,25.0,29.67,North,9,0.0,6.0,93,0.00,,---,0.00,0.00,VWS V14.01,2013-12-15 09:36:00,
2013-12-15 04:41:00,26.6,24.9,29.68,East,92,5.0,7.0,93,0.00,,---,0.00,0.00,VWS V14.01,2013-12-15 09:41:00,
2013-12-15 04:46:00,26.7,25.0,29.67,NNW,342,3.0,8.0,93,0.00,,---,0.00,0.00,VWS V14.01,2013-12-15 09:46:00,
2013-12-15 04:59:00,26.8,25.0,29.67,NE,38,3.0,14.0,93,0.00,,---,0.00,0.00,VWS V14.01,2013-12-15 09:59:00,
2013-12-15 05:00:00,19.8,18.1,29.63,NW,315,4.0,9.0,93,0.00,,---,0.00,0.00,VWS V15.00,2013-12-15 10:00:00,
2013-12-15 05:04:00,26.8,25.3,29.67,NW,308,0.0,2.0,94,0.00,,---,0.00,0.00,VWS V14.01,2013-12-15 10:04:00,
2013-12-15 05:09:00,26.9,25.4,29.66,NW,308,0.0,2.0,94,0.00,,---,0.00,0.00,VWS V14.01,2013-12-15 10:09:00,
2013-12-15 05:14:00,26.7,25.2,29.65,NW,308,0.0,2.0,94,0.00,,---,0.00,0.00,VWS V14.01,2013-12-15 10:14:00,
2013-12-15 05:19:00,26.5,25.0,29.66,WNW,298,2.0,3.0,94,0.00,,---,0.00,0.00,VWS V14.01,2013-12-15 10:19:00,
2013-12-15 05:24:00,24.3,22.1,29.67,NW,325,3.0,8.0,91,0.00,,---,0.00,0.00,VWS V14.01,2013-12-15 10:24:00,
2013-12-15 05:29:00,21.8,19.6,29.67,NW,319,5.0,8.0,91,0.00,,---,0.00,0.00,VWS V14.01,2013-12-15 10:29:00,
2013-12-15 05:30:00,20.2,18.5,29.64,West,275,5.0,8.0,93,0.00,,---,0.00,0.00,VWS V15.00,2013-12-15 10:30:00,
2013-12-15 05:34:00,21.0,19.0,29.66,NW,306,4.0,9.0,92,0.00,,---,0.00,0.00,VWS V14.01,2013-12-15 10:34:00,
2013-12-15 05:39:00,20.9,19.2,29.65,WNW,285,4.0,9.0,93,0.00,,---,0.00,0.00,VWS V14.01,2013-12-15 10:39:00,
2013-12-15 05:44:00,20.6,18.9,29.66,West,273,2.0,9.0,93,0.00,,---,0.00,0.00,VWS V14.01,2013-12-15 10:44:00,
2013-12-15 05:49:00,20.4,18.7,29.66,WNW,290,6.0,9.0,93,0.00,,---,0.00,0.00,VWS V14.01,2013-12-15 10:49:00,
2013-12-15 05:54:00,20.0,18.3,29.63,WNW,300,8.0,9.0,93,0.00,,---,0.00,0.00,VWS V14.01,2013-12-15 10:54:00,
2013-12-15 05:59:00,19.8,18.1,29.64,West,280,4.0,9.0,93,0.00,,---,0.00,0.00,VWS V14.01,2013-12-15 10:59:00,
2013-12-15 06:00:00,21.1,19.6,29.61,WNW,298,5.0,6.0,94,0.00,,---,0.00,0.00,VWS V15.00,2013-12-15 11:00:00,
2013-12-15 06:04:00,19.6,17.9,29.63,WNW,302,3.0,6.0,93,0.00,,---,0.00,0.00,VWS V14.01,2013-12-15 11:04:00,
2013-12-15 06:09:00,19.4,17.7,29.62,West,279,5.0,7.0,93,0.00,,---,0.00,0.00,VWS V14.01,2013-12-15 11:09:00,
2013-12-15 06:14:00,19.2,17.5,29.60,West,263,0.0,7.0,93,0.00,,---,0.00,0.00,VWS V14.01,2013-12-15 11:14:00,
2013-12-15 06:19:00,19.4,17.7,29.62,West,263,1.0,7.0,93,0.00,,---,0.00,0.00,VWS V14.01,2013-12-15 11:19:00,
2013-12-15 06:24:00,19.9,18.2,29.62,WNW,296,2.0,8.0,93,0.00,,---,0.00,0.00,VWS V14.01,2013-12-15 11:24:00,
2013-12-15 06:29:00,20.1,18.6,29.64,WNW,288,6.0,8.0,94,0.00,,---,0.00,0.00,VWS V14.01,2013-12-15 11:29:00,
2013-12-15 06:30:00,22.0,20.5,29.60,WNW,296,0.0,7.0,94,0.00,,---,0.00,0.00,VWS V15.00,2013-12-15 11:30:00,
2013-12-15 06:34:00,20.2,18.5,29.65,NW,315,4.0,5.0,93,0.00,,---,0.00,0.00,VWS V14.01,2013-12-15 11:34:00,
2013-12-15 06:39:00,20.4,19.0,29.62,WNW,300,0.0,6.0,94,0.00,,---,0.00,0.00,VWS V14.01,2013-12-15 11:39:00,
2013-12-15 06:44:00,20.6,19.1,29.62,WNW,300,0.0,6.0,94,0.00,,---,0.00,0.00,VWS V14.01,2013-12-15 11:44:00,
2013-12-15 06:49:00,20.9,19.5,29.62,WNW,300,1.0,6.0,94,0.00,,---,0.00,0.00,VWS V14.01,2013-12-15 11:49:00,
2013-12-15 06:54:00,21.0,19.5,29.62,NW,317,2.0,6.0,94,0.00,,---,0.00,0.00,VWS V14.01,2013-12-15 11:54:00,
2013-12-15 06:59:00,21.1,19.6,29.61,WNW,296,2.0,6.0,94,0.00,,---,0.00,0.00,VWS V14.01,2013-12-15 11:59:00,
2013-12-15 07:00:00,22.0,20.5,29.59,WNW,298,2.0,6.0,94,0.00,,---,0.00,11.00,VWS V15.00,2013-12-15 12:00:00,
2013-12-15 07:04:00,21.1,19.6,29.61,WNW,295,1.0,7.0,94,0.00,,---,0.00,0.00,VWS V14.01,2013-12-15 12:04:00,
2013-12-15 07:09:00,21.2,19.8,29.60,West,267,3.0,7.0,94,0.00,,---,0.00,0.00,VWS V14.01,2013-12-15 12:09:00,
2013-12-15 07:14:00,21.5,20.0,29.60,West,269,2.0,7.0,94,0.00,,---,0.00,0.00,VWS V14.01,2013-12-15 12:14:00,
2013-12-15 07:19:00,21.4,19.9,29.60,WNW,287,1.0,7.0,94,0.00,,---,0.00,0.00,VWS V14.01,2013-12-15 12:19:00,
2013-12-15 07:24:00,21.5,20.0,29.61,WNW,290,1.0,7.0,94,0.00,,---,0.00,0.00,VWS V14.01,2013-12-15 12:24:00,
2013-12-15 07:29:00,21.8,20.3,29.61,NW,320,3.0,7.0,94,0.00,,---,0.00,0.00,VWS V14.01,2013-12-15 12:29:00,
2013-12-15 07:30:00,22.6,21.1,29.61,WNW,298,2.0,9.0,94,0.00,,---,0.00,25.00,VWS V15.00,2013-12-15 12:30:00,
2013-12-15 07:34:00,22.1,20.6,29.60,WNW,296,0.0,5.0,94,0.00,,---,0.00,0.00,VWS V14.01,2013-12-15 12:34:00,
2013-12-15 07:39:00,22.3,20.8,29.59,WNW,296,0.0,5.0,94,0.00,,---,0.00,0.00,VWS V14.01,2013-12-15 12:39:00,
2013-12-15 07:44:00,22.4,20.9,29.59,West,273,0.0,6.0,94,0.00,,---,0.00,0.00,VWS V14.01,2013-12-15 12:44:00,
2013-12-15 07:49:00,22.2,20.7,29.59,SW,234,6.0,6.0,94,0.00,,---,0.00,11.00,VWS V14.01,2013-12-15 12:49:00,
2013-12-15 07:59:00,22.2,20.7,29.59,West,271,3.0,6.0,94,0.00,,---,0.00,11.00,VWS V14.01,2013-12-15 12:59:00,
2013-12-15 08:00:00,23.3,21.8,29.60,WSW,258,2.0,8.0,94,0.00,,---,0.00,70.00,VWS V15.00,2013-12-15 13:00:00,
2013-12-15 08:04:00,22.1,20.6,29.59,West,278,4.0,6.0,94,0.00,,---,0.00,26.00,VWS V14.01,2013-12-15 13:04:00,
2013-12-15 08:09:00,22.5,21.0,29.60,WSW,237,2.0,6.0,94,0.00,,---,0.00,33.00,VWS V14.01,2013-12-15 13:09:00,
2013-12-15 08:14:00,22.6,21.1,29.60,West,275,5.0,8.0,94,0.00,,---,0.00,25.00,VWS V14.01,2013-12-15 13:14:00,
2013-12-15 08:19:00,22.5,21.0,29.61,West,262,4.0,8.0,94,0.00,,---,0.00,23.00,VWS V14.01,2013-12-15 13:19:00,
2013-12-15 08:24:00,22.4,20.9,29.61,NW,309,6.0,9.0,94,0.00,,---,0.00,21.00,VWS V14.01,2013-12-15 13:24:00,
2013-12-15 08:29:00,22.5,21.0,29.61,WSW,257,5.0,9.0,94,0.00,,---,0.00,23.00,VWS V14.01,2013-12-15 13:29:00,
2013-12-15 08:30:00,24.3,23.1,29.61,West,264,2.0,7.0,95,0.00,,---,0.00,107.00,VWS V15.00,2013-12-15 13:30:00,
2013-12-15 08:34:00,22.6,21.1,29.61,West,277,2.0,6.0,94,0.00,,---,0.00,26.00,VWS V14.01,2013-12-15 13:34:00,
2013-12-15 08:39:00,22.6,21.1,29.60,West,267,0.0,8.0,94,0.00,,---,0.00,42.00,VWS V14.01,2013-12-15 13:39:00,
2013-12-15 08:44:00,22.7,21.2,29.60,WNW,294,0.0,8.0,94,0.00,,---,0.00,47.00,VWS V14.01,2013-12-15 13:44:00,
2013-12-15 08:49:00,22.9,21.7,29.60,WNW,294,0.0,8.0,95,0.00,,---,0.00,51.00,VWS V14.01,2013-12-15 13:49:00,
2013-12-15 08:54:00,23.1,21.9,29.60,WNW,294,0.0,8.0,95,0.00,,---,0.00,56.00,VWS V14.01,2013-12-15 13:54:00,
2013-12-15 08:59:00,23.3,22.1,29.60,NW,315,0.0,8.0,95,0.00,,---,0.00,69.00,VWS V14.01,2013-12-15 13:59:00,
2013-12-15 09:00:00,24.8,23.3,29.61,WNW,285,0.0,5.0,94,0.00,,---,0.00,63.00,VWS V15.00,2013-12-15 14:00:00,
2013-12-15 09:04:00,23.4,21.9,29.60,West,261,4.0,4.0,94,0.00,,---,0.00,62.00,VWS V14.01,2013-12-15 14:04:00,
2013-12-15 09:09:00,23.5,22.3,29.60,WSW,251,7.0,7.0,95,0.00,,---,0.00,67.00,VWS V14.01,2013-12-15 14:09:00,
2013-12-15 09:14:00,23.5,22.0,29.61,NW,309,0.0,7.0,94,0.00,,---,0.00,70.00,VWS V14.01,2013-12-15 14:14:00,
2013-12-15 09:19:00,23.6,22.1,29.61,NW,321,0.0,7.0,94,0.00,,---,0.00,91.00,VWS V14.01,2013-12-15 14:19:00,
2013-12-15 09:24:00,23.8,22.3,29.61,NW,321,0.0,7.0,94,0.00,,---,0.00,95.00,VWS V14.01,2013-12-15 14:24:00,
2013-12-15 09:29:00,24.2,23.0,29.61,NW,321,1.0,7.0,95,0.00,,---,0.00,107.00,VWS V14.01,2013-12-15 14:29:00,
2013-12-15 09:30:00,26.6,25.1,29.60,West,281,0.0,3.0,94,0.00,,---,0.00,264.00,VWS V15.00,2013-12-15 14:30:00,
2013-12-15 09:34:00,24.4,22.9,29.61,NW,323,2.0,3.0,94,0.00,,---,0.00,107.00,VWS V14.01,2013-12-15 14:34:00,
2013-12-15 09:39:00,24.4,22.9,29.61,WNW,287,3.0,4.0,94,0.00,,---,0.00,132.00,VWS V14.01,2013-12-15 14:39:00,
2013-12-15 09:44:00,24.6,23.1,29.61,West,261,3.0,5.0,94,0.00,,---,0.00,93.00,VWS V14.01,2013-12-15 14:44:00,
2013-12-15 09:49:00,24.7,23.2,29.61,WNW,290,3.0,5.0,94,0.00,,---,0.00,83.00,VWS V14.01,2013-12-15 14:49:00,
2013-12-15 09:54:00,24.7,23.2,29.61,NW,319,2.0,5.0,94,0.00,,---,0.00,72.00,VWS V14.01,2013-12-15 14:54:00,
2013-12-15 09:59:00,24.8,23.3,29.61,WSW,256,2.0,5.0,94,0.00,,---,0.00,69.00,VWS V14.01,2013-12-15 14:59:00,
2013-12-15 10:00:00,27.8,26.0,29.59,North,5,1.0,2.0,93,0.00,,---,0.00,200.00,VWS V15.00,2013-12-15 15:00:00,
2013-12-15 10:04:00,24.9,23.4,29.62,West,278,3.0,3.0,94,0.00,,---,0.00,65.00,VWS V14.01,2013-12-15 15:04:00,
2013-12-15 10:09:00,25.1,23.6,29.61,West,281,0.0,3.0,94,0.00,,---,0.00,69.00,VWS V14.01,2013-12-15 15:09:00,
2013-12-15 10:14:00,25.2,23.7,29.61,West,281,0.0,3.0,94,0.00,,---,0.00,104.00,VWS V14.01,2013-12-15 15:14:00,
2013-12-15 10:19:00,25.4,23.9,29.60,West,281,0.0,3.0,94,0.00,,---,0.00,185.00,VWS V14.01,2013-12-15 15:19:00,
2013-12-15 10:24:00,25.8,24.3,29.60,West,281,0.0,3.0,94,0.00,,---,0.00,169.00,VWS V14.01,2013-12-15 15:24:00,
2013-12-15 10:29:00,26.2,24.7,29.60,West,281,0.0,3.0,94,0.00,,---,0.00,260.00,VWS V14.01,2013-12-15 15:29:00,
2013-12-15 10:30:00,28.4,26.6,29.59,North,5,0.0,2.0,93,0.00,,---,0.00,137.00,VWS V15.00,2013-12-15 15:30:00,
2013-12-15 10:34:00,26.8,25.6,29.60,West,281,0.0,0.0,95,0.00,,---,0.00,206.00,VWS V14.01,2013-12-15 15:34:00,
2013-12-15 10:39:00,27.1,25.6,29.60,West,281,0.0,2.0,94,0.00,,---,0.00,206.00,VWS V14.01,2013-12-15 15:39:00,
2013-12-15 10:44:00,27.2,25.7,29.60,North,5,2.0,2.0,94,0.00,,---,0.00,193.00,VWS V14.01,2013-12-15 15:44:00,
2013-12-15 10:49:00,27.4,25.9,29.60,North,5,0.0,2.0,94,0.00,,---,0.00,213.00,VWS V14.01,2013-12-15 15:49:00,
2013-12-15 10:54:00,27.7,26.2,29.60,North,5,1.0,2.0,94,0.00,,---,0.00,204.00,VWS V14.01,2013-12-15 15:54:00,
2013-12-15 10:59:00,27.8,26.0,29.60,North,5,0.0,2.0,93,0.00,,---,0.00,188.00,VWS V14.01,2013-12-15 15:59:00,
2013-12-15 11:00:00,28.7,26.9,29.59,North,5,0.0,3.0,93,0.00,,---,0.00,127.00,VWS V15.00,2013-12-15 16:00:00,
2013-12-15 11:04:00,27.8,26.0,29.60,North,5,0.0,2.0,93,0.00,,---,0.00,188.00,VWS V14.01,2013-12-15 16:04:00,
2013-12-15 11:09:00,27.8,26.0,29.59,North,5,0.0,2.0,93,0.00,,---,0.00,169.00,VWS V14.01,2013-12-15 16:09:00,
2013-12-15 11:14:00,27.9,26.1,29.59,North,5,0.0,2.0,93,0.00,,---,0.00,141.00,VWS V14.01,2013-12-15 16:14:00,
2013-12-15 11:19:00,28.0,26.2,29.59,North,5,0.0,2.0,93,0.00,,---,0.00,135.00,VWS V14.01,2013-12-15 16:19:00,
2013-12-15 11:24:00,28.2,26.4,29.59,North,5,0.0,2.0,93,0.00,,---,0.00,149.00,VWS V14.01,2013-12-15 16:24:00,
2013-12-15 11:29:00,28.3,26.5,29.59,North,5,0.0,2.0,93,0.00,,---,0.00,155.00,VWS V14.01,2013-12-15 16:29:00,
2013-12-15 11:30:00,28.8,26.8,29.60,WSW,250,1.0,6.0,92,0.00,,---,0.00,135.00,VWS V15.00,2013-12-15 16:30:00,
2013-12-15 11:34:00,28.5,26.7,29.59,North,5,0.0,0.0,93,0.00,,---,0.00,130.00,VWS V14.01,2013-12-15 16:34:00,
2013-12-15 11:39:00,28.3,26.5,29.59,North,5,0.0,3.0,93,0.00,,---,0.00,132.00,VWS V14.01,2013-12-15 16:39:00,
2013-12-15 11:44:00,28.3,26.5,29.59,North,5,0.0,3.0,93,0.00,,---,0.00,156.00,VWS V14.01,2013-12-15 16:44:00,
2013-12-15 11:49:00,28.4,26.6,29.59,North,5,0.0,3.0,93,0.00,,---,0.00,144.00,VWS V14.01,2013-12-15 16:49:00,
2013-12-15 11:54:00,28.5,26.7,29.59,North,5,0.0,3.0,93,0.00,,---,0.00,127.00,VWS V14.01,2013-12-15 16:54:00,
2013-12-15 11:59:00,28.6,26.8,29.59,North,5,0.0,3.0,93,0.00,,---,0.00,128.00,VWS V14.01,2013-12-15 16:59:00,
2013-12-15 12:00:00,29.3,27.3,29.60,NNW,327,0.0,4.0,92,0.00,,---,0.00,148.00,VWS V15.00,2013-12-15 17:00:00,
2013-12-15 12:04:00,28.7,26.9,29.59,North,5,0.0,0.0,93,0.00,,---,0.00,128.00,VWS V14.01,2013-12-15 17:04:00,
2013-12-15 12:09:00,28.7,26.7,29.59,WNW,286,1.0,3.0,92,0.00,,---,0.00,123.00,VWS V14.01,2013-12-15 17:09:00,
2013-12-15 12:14:00,28.7,26.7,29.59,WNW,286,0.0,3.0,92,0.00,,---,0.00,139.00,VWS V14.01,2013-12-15 17:14:00,
2013-12-15 12:19:00,28.8,26.8,29.60,WNW,286,0.0,3.0,92,0.00,,---,0.00,113.00,VWS V14.01,2013-12-15 17:19:00,
2013-12-15 12:24:00,28.7,26.7,29.60,WNW,286,0.0,5.0,92,0.00,,---,0.00,118.00,VWS V14.01,2013-12-15 17:24:00,
2013-12-15 12:29:00,28.8,26.8,29.60,WSW,250,0.0,6.0,92,0.00,,---,0.00,134.00,VWS V14.01,2013-12-15 17:29:00,
2013-12-15 12:30:00,29.2,26.9,29.62,NW,323,0.0,5.0,91,0.00,,---,0.00,56.00,VWS V15.00,2013-12-15 17:30:00,
2013-12-15 12:34:00,28.9,27.1,29.60,WSW,250,0.0,2.0,93,0.00,,---,0.00,134.00,VWS V14.01,2013-12-15 17:34:00,
2013-12-15 12:39:00,28.8,26.8,29.60,West,276,3.0,4.0,92,0.00,,---,0.00,151.00,VWS V14.01,2013-12-15 17:39:00,
2013-12-15 12:44:00,28.9,26.9,29.59,West,276,0.0,4.0,92,0.00,,---,0.00,225.00,VWS V14.01,2013-12-15 17:44:00,
2013-12-15 12:49:00,29.1,27.1,29.60,WSW,257,1.0,4.0,92,0.00,,---,0.00,139.00,VWS V14.01,2013-12-15 17:49:00,
2013-12-15 12:54:00,29.0,27.0,29.60,West,262,0.0,4.0,92,0.00,,---,0.00,149.00,VWS V14.01,2013-12-15 17:54:00,
2013-12-15 12:59:00,29.1,27.1,29.60,West,262,0.0,4.0,92,0.00,,---,0.00,156.00,VWS V14.01,2013-12-15 17:59:00,
2013-12-15 13:00:00,29.0,27.0,29.63,WNW,284,2.0,4.0,92,0.00,,---,0.00,148.00,VWS V15.00,2013-12-15 18:00:00,
2013-12-15 13:04:00,29.3,27.3,29.60,SSW,201,5.0,5.0,92,0.00,,---,0.00,137.00,VWS V14.01,2013-12-15 18:04:00,
2013-12-15 13:09:00,29.3,27.3,29.61,NNE,19,0.0,5.0,92,0.00,,---,0.00,111.00,VWS V14.01,2013-12-15 18:09:00,
2013-12-15 13:14:00,29.3,27.3,29.61,WSW,242,0.0,5.0,92,0.00,,---,0.00,100.00,VWS V14.01,2013-12-15 18:14:00,
2013-12-15 13:19:00,29.3,27.3,29.61,WSW,242,0.0,5.0,92,0.00,,---,0.00,79.00,VWS V14.01,2013-12-15 18:19:00,
2013-12-15 13:24:00,29.3,27.0,29.62,WSW,253,0.0,5.0,91,0.00,,---,0.00,72.00,VWS V14.01,2013-12-15 18:24:00,
2013-12-15 13:29:00,29.2,26.9,29.62,ENE,68,0.0,5.0,91,0.00,,---,0.00,53.00,VWS V14.01,2013-12-15 18:29:00,
2013-12-15 13:30:00,29.2,26.9,29.65,WNW,286,0.0,4.0,91,0.00,,---,0.00,47.00,VWS V15.00,2013-12-15 18:30:00,
2013-12-15 13:34:00,29.1,26.8,29.62,NW,323,2.0,2.0,91,0.00,,---,0.00,53.00,VWS V14.01,2013-12-15 18:34:00,
2013-12-15 13:39:00,29.1,27.1,29.62,WNW,297,0.0,2.0,92,0.00,,---,0.00,51.00,VWS V14.01,2013-12-15 18:39:00,
2013-12-15 13:44:00,28.9,26.6,29.63,NW,305,0.0,4.0,91,0.00,,---,0.00,60.00,VWS V14.01,2013-12-15 18:44:00,
2013-12-15 13:49:00,28.8,26.5,29.63,NW,305,1.0,4.0,91,0.00,,---,0.00,62.00,VWS V14.01,2013-12-15 18:49:00,
2013-12-15 13:54:00,28.8,26.5,29.63,NW,305,0.0,4.0,91,0.00,,---,0.00,91.00,VWS V14.01,2013-12-15 18:54:00,
2013-12-15 13:59:00,28.9,26.9,29.63,NW,305,0.0,4.0,92,0.00,,---,0.00,142.00,VWS V14.01,2013-12-15 18:59:00,
2013-12-15 14:00:00,29.2,26.9,29.65,West,273,2.0,4.0,91,0.00,,---,0.00,53.00,VWS V15.00,2013-12-15 19:00:00,
2013-12-15 14:04:00,29.0,27.0,29.63,WNW,285,0.0,3.0,92,0.00,,---,0.00,125.00,VWS V14.01,2013-12-15 19:04:00,
2013-12-15 14:09:00,29.1,27.1,29.64,WNW,284,0.0,3.0,92,0.00,,---,0.00,95.00,VWS V14.01,2013-12-15 19:09:00,
2013-12-15 14:14:00,29.0,26.7,29.63,WNW,284,0.0,4.0,91,0.00,,---,0.00,121.00,VWS V14.01,2013-12-15 19:14:00,
2013-12-15 14:19:00,29.1,26.8,29.64,WNW,286,0.0,4.0,91,0.00,,---,0.00,70.00,VWS V14.01,2013-12-15 19:19:00,
2013-12-15 14:24:00,29.1,26.8,29.64,WNW,286,0.0,4.0,91,0.00,,---,0.00,69.00,VWS V14.01,2013-12-15 19:24:00,
2013-12-15 14:29:00,29.2,26.9,29.65,WNW,286,0.0,4.0,91,0.00,,---,0.00,51.00,VWS V14.01,2013-12-15 19:29:00,
2013-12-15 14:30:00,29.4,27.1,29.67,West,273,0.0,3.0,91,0.00,,---,0.00,39.00,VWS V15.00,2013-12-15 19:30:00,
2013-12-15 14:34:00,29.2,26.9,29.65,WNW,286,0.0,0.0,91,0.00,,---,0.00,44.00,VWS V14.01,2013-12-15 19:34:00,
2013-12-15 14:39:00,29.1,26.8,29.65,SSE,160,0.0,2.0,91,0.00,,---,0.00,42.00,VWS V14.01,2013-12-15 19:39:00,
2013-12-15 14:44:00,29.2,27.2,29.65,West,273,0.0,2.0,92,0.00,,---,0.00,44.00,VWS V14.01,2013-12-15 19:44:00,
2013-12-15 14:47:00,29.2,27.2,29.65,West,273,0.0,2.0,92,0.00,,---,0.00,60.00,VWS V14.01,2013-12-15 19:47:00,
2013-12-15 14:52:00,29.2,26.9,29.65,West,273,2.0,4.0,91,0.00,,---,0.00,74.00,VWS V14.01,2013-12-15 19:52:00,
2013-12-15 14:57:00,29.2,26.9,29.65,West,273,0.0,4.0,91,0.00,,---,0.00,65.00,VWS V14.01,2013-12-15 19:57:00,
2013-12-15 15:00:00,29.1,26.5,29.68,WNW,295,0.0,2.0,90,0.00,,---,0.00,9.00,VWS V15.00,2013-12-15 20:00:00,
2013-12-15 15:02:00,29.2,26.9,29.65,West,273,0.0,4.0,91,0.00,,---,0.00,53.00,VWS V14.01,2013-12-15 20:02:00,
2013-12-15 15:07:00,29.2,26.9,29.65,West,273,0.0,2.0,91,0.00,,---,0.00,44.00,VWS V14.01,2013-12-15 20:07:00,
2013-12-15 15:12:00,29.3,27.0,29.66,West,273,0.0,2.0,91,0.00,,---,0.00,60.00,VWS V14.01,2013-12-15 20:12:00,
2013-12-15 15:17:00,29.4,27.1,29.66,West,273,2.0,3.0,91,0.00,,---,0.00,79.00,VWS V14.01,2013-12-15 20:17:00,
2013-12-15 15:22:00,29.4,27.1,29.66,West,273,0.0,3.0,91,0.00,,---,0.00,58.00,VWS V14.01,2013-12-15 20:22:00,
2013-12-15 15:27:00,29.4,27.1,29.67,West,273,0.0,3.0,91,0.00,,---,0.00,42.00,VWS V14.01,2013-12-15 20:27:00,
2013-12-15 15:30:00,28.1,25.5,29.70,WNW,295,0.0,0.0,90,0.00,,---,0.00,0.00,VWS V15.00,2013-12-15 20:30:00,
2013-12-15 15:32:00,29.4,27.1,29.67,West,273,0.0,3.0,91,0.00,,---,0.00,42.00,VWS V14.01,2013-12-15 20:32:00,
2013-12-15 15:37:00,29.4,27.1,29.67,West,273,0.0,0.0,91,0.00,,---,0.00,58.00,VWS V14.01,2013-12-15 20:37:00,
2013-12-15 15:42:00,29.5,27.2,29.67,West,273,0.0,0.0,91,0.00,,---,0.00,30.00,VWS V14.01,2013-12-15 20:42:00,
2013-12-15 15:47:00,29.5,26.9,29.68,West,273,0.0,2.0,90,0.00,,---,0.00,21.00,VWS V14.01,2013-12-15 20:47:00,
2013-12-15 15:52:00,29.5,26.9,29.68,WNW,295,0.0,2.0,90,0.00,,---,0.00,16.00,VWS V14.01,2013-12-15 20:52:00,
2013-12-15 15:57:00,29.3,26.7,29.68,WNW,295,0.0,2.0,90,0.00,,---,0.00,12.00,VWS V14.01,2013-12-15 20:57:00,
2013-12-15 16:00:00,29.5,25.6,29.73,NW,313,3.0,10.0,85,0.00,,---,0.00,0.00,VWS V15.00,2013-12-15 21:00:00,
2013-12-15 16:02:00,29.2,26.6,29.68,WNW,295,0.0,2.0,90,0.00,,---,0.00,11.00,VWS V14.01,2013-12-15 21:02:00,
2013-12-15 16:07:00,29.0,26.4,29.69,WNW,295,0.0,0.0,90,0.00,,---,0.00,9.00,VWS V14.01,2013-12-15 21:07:00,
2013-12-15 16:12:00,28.8,26.2,29.69,WNW,295,0.0,0.0,90,0.00,,---,0.00,7.00,VWS V14.01,2013-12-15 21:12:00,
2013-12-15 16:17:00,28.7,26.1,29.69,WNW,295,0.0,0.0,90,0.00,,---,0.00,5.00,VWS V14.01,2013-12-15 21:17:00,
2013-12-15 16:22:00,28.4,25.9,29.70,WNW,295,0.0,0.0,90,0.00,,---,0.00,0.00,VWS V14.01,2013-12-15 21:22:00,
2013-12-15 16:27:00,28.3,25.8,29.70,WNW,295,0.0,0.0,90,0.00,,---,0.00,0.00,VWS V14.01,2013-12-15 21:27:00,
2013-12-15 16:30:00,28.7,23.6,29.74,ESE,116,0.0,13.0,81,0.00,,---,0.00,0.00,VWS V15.00,2013-12-15 21:30:00,
2013-12-15 16:32:00,28.1,25.5,29.70,WNW,295,0.0,0.0,90,0.00,,---,0.00,0.00,VWS V14.01,2013-12-15 21:32:00,
2013-12-15 16:37:00,28.0,25.5,29.70,WNW,295,3.0,3.0,90,0.00,,---,0.00,0.00,VWS V14.01,2013-12-15 21:37:00,
2013-12-15 16:42:00,28.2,25.6,29.71,WNW,295,4.0,4.0,90,0.00,,---,0.00,0.00,VWS V14.01,2013-12-15 21:42:00,
2013-12-15 16:47:00,28.6,25.8,29.71,West,281,3.0,5.0,89,0.00,,---,0.00,0.00,VWS V14.01,2013-12-15 21:47:00,
2013-12-15 16:52:00,29.1,25.7,29.72,West,261,8.0,9.0,87,0.00,,---,0.00,0.00,VWS V14.01,2013-12-15 21:52:00,
2013-12-15 16:57:00,29.4,25.7,29.72,WNW,284,3.0,10.0,86,0.00,,---,0.00,0.00,VWS V14.01,2013-12-15 21:57:00,
2013-12-15 17:00:00,28.1,23.0,29.75,ENE,69,0.0,10.0,81,0.00,,---,0.00,0.00,VWS V15.00,2013-12-15 22:00:00,
2013-12-15 17:02:00,29.5,25.6,29.73,West,275,5.0,10.0,85,0.00,,---,0.00,0.00,VWS V14.01,2013-12-15 22:02:00,
2013-12-15 17:07:00,29.5,25.6,29.73,WNW,283,6.0,9.0,85,0.00,,---,0.00,0.00,VWS V14.01,2013-12-15 22:07:00,
2013-12-15 17:12:00,29.4,25.2,29.73,NNW,332,7.0,10.0,84,0.00,,---,0.00,0.00,VWS V14.01,2013-12-15 22:12:00,
2013-12-15 17:17:00,29.2,25.0,29.74,WSW,258,3.0,10.0,84,0.00,,---,0.00,0.00,VWS V14.01,2013-12-15 22:17:00,
2013-12-15 17:22:00,29.1,24.3,29.73,NW,309,6.0,13.0,82,0.00,,---,0.00,0.00,VWS V14.01,2013-12-15 22:22:00,
2013-12-15 17:27:00,29.0,23.9,29.73,East,101,3.0,13.0,81,0.00,,---,0.00,0.00,VWS V14.01,2013-12-15 22:27:00,
2013-12-15 17:30:00,27.4,22.6,29.76,West,281,0.0,5.0,82,0.00,,---,0.00,0.00,VWS V15.00,2013-12-15 22:30:00,
2013-12-15 17:32:00,28.8,23.7,29.74,ESE,116,0.0,13.0,81,0.00,,---,0.00,0.00,VWS V14.01,2013-12-15 22:32:00,
2013-12-15 17:37:00,28.5,23.1,29.74,WSW,254,2.0,7.0,80,0.00,,---,0.00,0.00,VWS V14.01,2013-12-15 22:37:00,
2013-12-15 17:42:00,28.5,23.1,29.74,West,277,2.0,10.0,80,0.00,,---,0.00,0.00,VWS V14.01,2013-12-15 22:42:00,
2013-12-15 17:47:00,28.5,23.1,29.74,WNW,291,0.0,10.0,80,0.00,,---,0.00,0.00,VWS V14.01,2013-12-15 22:47:00,
2013-12-15 17:52:00,28.3,23.2,29.74,WNW,291,1.0,10.0,81,0.00,,---,0.00,0.00,VWS V14.01,2013-12-15 22:52:00,
2013-12-15 17:57:00,28.2,23.1,29.75,ENE,69,0.0,10.0,81,0.00,,---,0.00,0.00,VWS V14.01,2013-12-15 22:57:00,
2013-12-15 18:00:00,27.2,21.9,29.77,West,275,3.0,7.0,80,0.00,,---,0.00,0.00,VWS V15.00,2013-12-15 23:00:00,
2013-12-15 18:02:00,28.1,23.0,29.75,ENE,70,0.0,10.0,81,0.00,,---,0.00,0.00,VWS V14.01,2013-12-15 23:02:00,
2013-12-15 18:07:00,27.9,22.8,29.75,South,189,1.0,4.0,81,0.00,,---,0.00,0.00,VWS V14.01,2013-12-15 23:07:00,
2013-12-15 18:12:00,27.7,22.9,29.75,West,260,5.0,5.0,82,0.00,,---,0.00,0.00,VWS V14.01,2013-12-15 23:12:00,
2013-12-15 18:17:00,27.8,22.7,29.75,NNW,333,2.0,5.0,81,0.00,,---,0.00,0.00,VWS V14.01,2013-12-15 23:17:00,
2013-12-15 18:22:00,27.7,22.6,29.75,South,188,0.0,5.0,81,0.00,,---,0.00,0.00,VWS V14.01,2013-12-15 23:22:00,
2013-12-15 18:27:00,27.5,22.5,29.76,West,281,0.0,5.0,81,0.00,,---,0.00,0.00,VWS V14.01,2013-12-15 23:27:00,
2013-12-15 18:30:00,26.7,21.4,29.77,WSW,252,0.0,7.0,80,0.00,,---,0.00,0.00,VWS V15.00,2013-12-15 23:30:00,
2013-12-15 18:32:00,27.4,22.4,29.76,West,281,0.0,5.0,81,0.00,,---,0.00,0.00,VWS V14.01,2013-12-15 23:32:00,
2013-12-15 18:37:00,27.2,22.4,29.76,East,81,0.0,3.0,82,0.00,,---,0.00,0.00,VWS V14.01,2013-12-15 23:37:00,
2013-12-15 18:42:00,26.9,22.1,29.76,WNW,289,0.0,5.0,82,0.00,,---,0.00,0.00,VWS V14.01,2013-12-15 23:42:00,
2013-12-15 18:47:00,27.0,22.2,29.76,West,272,0.0,5.0,82,0.00,,---,0.00,0.00,VWS V14.01,2013-12-15 23:47:00,
2013-12-15 18:52:00,27.2,22.1,29.77,North,355,0.0,5.0,81,0.00,,---,0.00,0.00,VWS V14.01,2013-12-15 23:52:00,
2013-12-15 18:57:00,27.2,22.1,29.77,West,273,0.0,5.0,81,0.00,,---,0.00,0.00,VWS V14.01,2013-12-15 23:57:00,
2013-12-15 19:00:00,25.9,20.9,29.77,NNW,332,0.0,5.0,81,0.00,,---,0.00,0.00,VWS V15.00,2013-12-16 00:00:00,
2013-12-15 19:02:00,27.2,21.9,29.77,West,275,4.0,7.0,80,0.00,,---,0.00,0.00,VWS V14.01,2013-12-16 00:02:00,
2013-12-15 19:07:00,27.2,21.9,29.77,NW,317,0.0,3.0,80,0.00,,---,0.00,0.00,VWS V14.01,2013-12-16 00:07:00,
2013-12-15 19:12:00,27.1,21.5,29.77,NW,317,1.0,7.0,79,0.00,,---,0.00,0.00,VWS V14.01,2013-12-16 00:12:00,
2013-12-15 19:17:00,27.2,21.6,29.77,West,264,0.0,7.0,79,0.00,,---,0.00,0.00,VWS V14.01,2013-12-16 00:17:00,
2013-12-15 19:22:00,27.1,21.5,29.77,NNW,343,2.0,7.0,79,0.00,,---,0.00,0.00,VWS V14.01,2013-12-16 00:22:00,
2013-12-15 19:27:00,27.0,21.7,29.77,NNW,343,0.0,7.0,80,0.00,,---,0.00,0.00,VWS V14.01,2013-12-16 00:27:00,
2013-12-15 19:30:00,25.6,20.9,29.78,SSW,195,0.0,3.0,82,0.00,,---,0.00,0.00,VWS V15.00,2013-12-16 00:30:00,
2013-12-15 19:32:00,26.7,21.4,29.77,WSW,252,1.0,7.0,80,0.00,,---,0.00,0.00,VWS V14.01,2013-12-16 00:32:00,
2013-12-15 19:37:00,26.6,21.0,29.77,West,277,0.0,5.0,79,0.00,,---,0.00,0.00,VWS V14.01,2013-12-16 00:37:00,
2013-12-15 19:42:00,26.6,21.3,29.77,NNW,331,0.0,5.0,80,0.00,,---,0.00,0.00,VWS V14.01,2013-12-16 00:42:00,
2013-12-15 19:47:00,26.3,21.3,29.77,NNW,331,0.0,5.0,81,0.00,,---,0.00,0.00,VWS V14.01,2013-12-16 00:47:00,
2013-12-15 19:52:00,26.2,21.2,29.77,NNW,331,0.0,5.0,81,0.00,,---,0.00,0.00,VWS V14.01,2013-12-16 00:52:00,
2013-12-15 19:57:00,26.0,21.0,29.77,NNW,332,0.0,5.0,81,0.00,,---,0.00,0.00,VWS V14.01,2013-12-16 00:57:00,
2013-12-15 20:00:00,25.1,20.7,29.78,SSW,196,0.0,1.0,83,0.00,,---,0.00,0.00,VWS V15.00,2013-12-16 01:00:00,
2013-12-15 20:02:00,25.9,20.9,29.77,NNW,332,0.0,5.0,81,0.00,,---,0.00,0.00,VWS V14.01,2013-12-16 01:02:00,
2013-12-15 20:06:00,25.8,20.8,29.77,NNW,332,0.0,1.0,81,0.00,,---,0.00,0.00,VWS V14.01,2013-12-16 01:06:00,
2013-12-15 20:11:00,25.8,21.1,29.77,NNW,332,0.0,2.0,82,0.00,,---,0.00,0.00,VWS V14.01,2013-12-16 01:11:00,
2013-12-15 20:16:00,25.6,20.6,29.78,South,184,1.0,3.0,81,0.00,,---,0.00,0.00,VWS V14.01,2013-12-16 01:16:00,
2013-12-15 20:21:00,25.7,21.0,29.78,SSW,198,0.0,3.0,82,0.00,,---,0.00,0.00,VWS V14.01,2013-12-16 01:21:00,
2013-12-15 20:27:00,25.6,20.9,29.78,SSW,194,0.0,3.0,82,0.00,,---,0.00,0.00,VWS V14.01,2013-12-16 01:27:00,
2013-12-15 20:30:00,25.1,21.0,29.78,SSW,196,0.0,1.0,84,0.00,,---,0.00,0.00,VWS V15.00,2013-12-16 01:30:00,
2013-12-15 20:32:00,25.6,20.9,29.78,SSW,195,0.0,3.0,82,0.00,,---,0.00,0.00,VWS V14.01,2013-12-16 01:32:00,
2013-12-15 20:37:00,25.6,20.9,29.78,SSW,196,0.0,1.0,82,0.00,,---,0.00,0.00,VWS V14.01,2013-12-16 01:37:00,
2013-12-15 20:42:00,25.6,20.9,29.78,SSW,196,0.0,1.0,82,0.00,,---,0.00,0.00,VWS V14.01,2013-12-16 01:42:00,
2013-12-15 20:47:00,25.4,21.0,29.78,SSW,196,0.0,1.0,83,0.00,,---,0.00,0.00,VWS V14.01,2013-12-16 01:47:00,
2013-12-15 20:52:00,25.4,20.7,29.78,SSW,196,0.0,1.0,82,0.00,,---,0.00,0.00,VWS V14.01,2013-12-16 01:52:00,
2013-12-15 20:56:00,25.2,21.0,29.78,SSW,196,0.0,1.0,84,0.00,,---,0.00,0.00,VWS V14.01,2013-12-16 01:56:00,
2013-12-15 21:00:00,24.6,21.3,29.79,SSW,196,0.0,0.0,87,0.00,,---,0.00,0.00,VWS V15.00,2013-12-16 02:00:00,
2013-12-15 21:01:00,25.2,20.8,29.78,SSW,196,0.0,1.0,83,0.00,,---,0.00,0.00,VWS V14.01,2013-12-16 02:01:00,
2013-12-15 21:06:00,25.3,20.9,29.78,SSW,196,0.0,1.0,83,0.00,,---,0.00,0.00,VWS V14.01,2013-12-16 02:06:00,
2013-12-15 21:11:00,25.2,20.8,29.78,SSW,196,0.0,1.0,83,0.00,,---,0.00,0.00,VWS V14.01,2013-12-16 02:11:00,
2013-12-15 21:16:00,25.2,20.8,29.78,SSW,196,0.0,1.0,83,0.00,,---,0.00,0.00,VWS V14.01,2013-12-16 02:16:00,
2013-12-15 21:21:00,25.1,20.7,29.78,SSW,196,0.0,1.0,83,0.00,,---,0.00,0.00,VWS V14.01,2013-12-16 02:21:00,
2013-12-15 21:26:00,25.1,21.0,29.78,SSW,196,0.0,1.0,84,0.00,,---,0.00,0.00,VWS V14.01,2013-12-16 02:26:00,
2013-12-15 21:30:00,24.9,21.0,29.79,SSW,196,0.0,0.0,85,0.00,,---,0.00,0.00,VWS V15.00,2013-12-16 02:30:00,
2013-12-15 21:31:00,25.1,21.0,29.78,SSW,196,0.0,1.0,84,0.00,,---,0.00,0.00,VWS V14.01,2013-12-16 02:31:00,
2013-12-15 21:36:00,25.0,21.1,29.79,SSW,196,0.0,0.0,85,0.00,,---,0.00,0.00,VWS V14.01,2013-12-16 02:36:00,
2013-12-15 21:51:00,24.9,21.0,29.79,SSW,196,0.0,0.0,85,0.00,,---,0.00,0.00,VWS V14.01,2013-12-16 02:51:00,
2013-12-15 21:56:00,24.7,21.4,29.79,SSW,196,0.0,0.0,87,0.00,,---,0.00,0.00,VWS V14.01,2013-12-16 02:56:00,
2013-12-15 22:00:00,25.1,21.0,29.79,SSW,196,0.0,1.0,84,0.00,,---,0.00,0.00,VWS V15.00,2013-12-16 03:00:00,
2013-12-15 22:01:00,24.6,21.3,29.79,SSW,196,0.0,0.0,87,0.00,,---,0.00,0.00,VWS V14.01,2013-12-16 03:01:00,
2013-12-15 22:06:00,24.5,21.2,29.79,SSW,196,0.0,0.0,87,0.00,,---,0.00,0.00,VWS V14.01,2013-12-16 03:06:00,
2013-12-15 22:11:00,24.6,21.0,29.78,SSW,196,0.0,0.0,86,0.00,,---,0.00,0.00,VWS V14.01,2013-12-16 03:11:00,
2013-12-15 22:16:00,24.7,20.8,29.78,SSW,196,0.0,0.0,85,0.00,,---,0.00,0.00,VWS V14.01,2013-12-16 03:16:00,
2013-12-15 22:21:00,24.9,21.0,29.78,SSW,196,0.0,0.0,85,0.00,,---,0.00,0.00,VWS V14.01,2013-12-16 03:21:00,
2013-12-15 22:26:00,24.9,21.0,29.78,SSW,196,0.0,0.0,85,0.00,,---,0.00,0.00,VWS V14.01,2013-12-16 03:26:00,
2013-12-15 22:30:00,25.1,21.0,29.79,West,266,3.0,3.0,84,0.00,,---,0.00,0.00,VWS V15.00,2013-12-16 03:30:00,
2013-12-15 22:31:00,24.8,20.9,29.79,SSW,196,0.0,0.0,85,0.00,,---,0.00,0.00,VWS V14.01,2013-12-16 03:31:00,
2013-12-15 22:36:00,24.8,21.2,29.79,SSW,196,0.0,0.0,86,0.00,,---,0.00,0.00,VWS V14.01,2013-12-16 03:36:00,
2013-12-15 22:39:00,24.8,20.9,29.78,SSW,196,0.0,0.0,85,0.00,,---,0.00,0.00,VWS V14.01,2013-12-16 03:39:00,
2013-12-15 22:44:00,24.9,21.0,29.78,SSW,196,0.0,0.0,85,0.00,,---,0.00,0.00,VWS V14.01,2013-12-16 03:44:00,
2013-12-15 22:49:00,24.9,21.0,29.79,SSW,196,0.0,0.0,85,0.00,,---,0.00,0.00,VWS V14.01,2013-12-16 03:49:00,
2013-12-15 22:54:00,25.0,21.1,29.79,SSW,196,0.0,0.0,85,0.00,,---,0.00,0.00,VWS V14.01,2013-12-16 03:54:00,
2013-12-15 22:59:00,25.1,21.0,29.79,SSW,196,0.0,0.0,84,0.00,,---,0.00,0.00,VWS V14.01,2013-12-16 03:59:00,
2013-12-15 23:00:00,24.7,21.1,29.78,WNW,293,2.0,3.0,86,0.00,,---,0.00,0.00,VWS V15.00,2013-12-16 04:00:00,
2013-12-15 23:04:00,25.2,21.0,29.79,SSW,196,0.0,2.0,84,0.00,,---,0.00,0.00,VWS V14.01,2013-12-16 04:04:00,
2013-12-15 23:09:00,25.2,21.0,29.79,SSW,196,0.0,2.0,84,0.00,,---,0.00,0.00,VWS V14.01,2013-12-16 04:09:00,
2013-12-15 23:14:00,25.1,21.0,29.79,SSW,196,0.0,2.0,84,0.00,,---,0.00,0.00,VWS V14.01,2013-12-16 04:14:00,
2013-12-15 23:19:00,25.2,21.0,29.79,SSW,196,0.0,2.0,84,0.00,,---,0.00,0.00,VWS V14.01,2013-12-16 04:19:00,
2013-12-15 23:24:00,25.2,21.0,29.79,West,266,0.0,2.0,84,0.00,,---,0.00,0.00,VWS V14.01,2013-12-16 04:24:00,
2013-12-15 23:29:00,25.2,21.0,29.79,West,266,0.0,3.0,84,0.00,,---,0.00,0.00,VWS V14.01,2013-12-16 04:29:00,
2013-12-15 23:30:00,24.4,20.8,29.78,WNW,293,0.0,3.0,86,0.00,,---,0.00,0.00,VWS V15.00,2013-12-16 04:30:00,
2013-12-15 23:34:00,25.1,21.0,29.79,West,266,0.0,3.0,84,0.00,,---,0.00,0.00,VWS V14.01,2013-12-16 04:34:00,
2013-12-15 23:39:00,25.2,21.0,29.78,WNW,293,0.0,3.0,84,0.00,,---,0.00,0.00,VWS V14.01,2013-12-16 04:39:00,
2013-12-15 23:44:00,25.4,21.2,29.78,WNW,293,0.0,3.0,84,0.00,,---,0.00,0.00,VWS V14.01,2013-12-16 04:44:00,
2013-12-15 23:49:00,25.2,21.3,29.78,WNW,293,0.0,3.0,85,0.00,,---,0.00,0.00,VWS V14.01,2013-12-16 04:49:00,
2013-12-15 23:54:00,24.9,21.0,29.78,WNW,293,0.0,3.0,85,0.00,,---,0.00,0.00,VWS V14.01,2013-12-16 04:54:00,
2013-12-15 23:59:00,24.8,21.2,29.78,WNW,293,0.0,3.0,86,0.00,,---,0.00,0.00,VWS V14.01,2013-12-16 04:59:00,